Terminal Aerodrome Forecast
Issued by NWS

Home | Current Version | Previous Version | Text Only | Print | Product List | Glossary On
Versions: 1 2 3 4 5 6 7 8 9 10 11 12 13 14 15 16 17
000
FTUS46 KOTX 311138
TAFSFF
TAF
KSFF 311138Z 3112/0112 VRB03KT P6SM SCT070 OVC110
     FM312200 23010KT P6SM -RA BKN050 OVC090
     FM010000 22009KT P6SM -RA BKN030 OVC070
     FM010400 21006KT P6SM SCT025 OVC060=

USA.gov is the U.S. government's official web portal to all federal, state and local government web resources and services.